^^
Grace C. Lehan Memorial Weather Station Historical Data
Daily Summary for December 25, 2021 Units:  Both    English   Metric
Daily Weekly Monthly Yearly
  High: Low: Average:
Temperature: 35 °F /  1.7 °C 28.3 °F /  -2.1 °C 31.9 °F /  -0.1 °C
Dew Point: 33.7 °F /  0.9 °C 25.5 °F /  -3.6 °C 30.2 °F /  -1 °C
Humidity: 95.3% 89% 93%
Wind Speed: 1.7mph /  2.7km/h - 0.1mph /  0.2km/h
Wind Gust: 4mph /  6.4km/h - -
Wind- - NE
Pressure: 29.92 in /  1013.1 hPa 29.46 in /  997.5 hPa -
Precipitation: 0.05 in /  1.27 mm    
 
 
Tabular Data for December 25, 2021
Time Temperature Dew Point Pressure Wind Wind Speed Wind Gust Humidity Rainfall Rate (Hourly) solar
00:04 28.4 °F /  -2 °C 25.6 °F /  -3.6 °C 29.92in /  1013.1hPa Calm     89% 0.00in /  0mm 0 W/m2
00:09 28.5 °F /  -1.9 °C 25.6 °F /  -3.6 °C 29.92in /  1013.1hPa Calm     89% 0.00in /  0mm 0 W/m2
00:14 28.5 °F /  -1.9 °C 25.7 °F /  -3.5 °C 29.91in /  1012.8hPa Calm     89% 0.00in /  0mm 0 W/m2
00:19 28.5 °F /  -1.9 °C 25.7 °F /  -3.5 °C 29.90in /  1012.4hPa Calm     89% 0.00in /  0mm 0 W/m2
00:24 28.5 °F /  -1.9 °C 25.7 °F /  -3.5 °C 29.90in /  1012.4hPa Calm     89% 0.00in /  0mm 0 W/m2
00:29 28.5 °F /  -1.9 °C 25.6 °F /  -3.6 °C 29.90in /  1012.4hPa Calm     89% 0.00in /  0mm 0 W/m2
00:34 28.5 °F /  -1.9 °C 25.7 °F /  -3.5 °C 29.89in /  1012.1hPa Calm     89% 0.00in /  0mm 0 W/m2
00:39 28.5 °F /  -1.9 °C 25.7 °F /  -3.5 °C 29.89in /  1012.1hPa Calm     89% 0.00in /  0mm 0 W/m2
00:44 28.5 °F /  -1.9 °C 25.7 °F /  -3.5 °C 29.89in /  1012.1hPa Calm     89% 0.00in /  0mm 0 W/m2
00:49 28.4 °F /  -2 °C 25.6 °F /  -3.6 °C 29.89in /  1012.1hPa Calm     89% 0.00in /  0mm 0 W/m2
00:54 28.4 °F /  -2 °C 25.6 °F /  -3.6 °C 29.88in /  1011.7hPa Calm     89% 0.00in /  0mm 0 W/m2
00:59 28.3 °F /  -2.1 °C 25.5 °F /  -3.6 °C 29.90in /  1012.4hPa Calm   1mph /  1.6km/h 89% 0.00in /  0mm 0 W/m2
01:04 28.3 °F /  -2.1 °C 25.5 °F /  -3.6 °C 29.90in /  1012.4hPa Calm   1mph /  1.6km/h 89% 0.00in /  0mm 0 W/m2
01:09 28.3 °F /  -2.1 °C 25.5 °F /  -3.6 °C 29.90in /  1012.4hPa Calm     89% 0.00in /  0mm 0 W/m2
01:14 28.3 °F /  -2.1 °C 25.5 °F /  -3.6 °C 29.91in /  1012.8hPa Calm     89.1% 0.00in /  0mm 0 W/m2
01:19 28.3 °F /  -2.1 °C 25.7 °F /  -3.5 °C 29.91in /  1012.8hPa Calm     90% 0.00in /  0mm 0 W/m2
01:24 28.3 °F /  -2.1 °C 25.8 °F /  -3.4 °C 29.91in /  1012.8hPa Calm     90% 0.00in /  0mm 0 W/m2
01:29 28.3 °F /  -2.1 °C 25.8 °F /  -3.4 °C 29.90in /  1012.4hPa Calm     90% 0.00in /  0mm 0 W/m2
01:34 28.3 °F /  -2.1 °C 25.8 °F /  -3.4 °C 29.90in /  1012.4hPa Calm     90% 0.00in /  0mm 0 W/m2
01:39 28.3 °F /  -2.1 °C 25.8 °F /  -3.4 °C 29.89in /  1012.1hPa Calm     90% 0.00in /  0mm 0 W/m2
01:44 28.3 °F /  -2.1 °C 25.8 °F /  -3.4 °C 29.89in /  1012.1hPa Calm     90% 0.00in /  0mm 0 W/m2
01:49 28.4 °F /  -2 °C 25.8 °F /  -3.4 °C 29.89in /  1012.1hPa Calm     90% 0.00in /  0mm 0 W/m2
01:54 28.4 °F /  -2 °C 25.9 °F /  -3.4 °C 29.89in /  1012.1hPa Calm     90% 0.00in /  0mm 0 W/m2
01:59 28.4 °F /  -2 °C 25.9 °F /  -3.4 °C 29.89in /  1012.1hPa Calm     90% 0.00in /  0mm 0 W/m2
02:04 28.5 °F /  -1.9 °C 26 °F /  -3.3 °C 29.88in /  1011.7hPa Calm     90% 0.00in /  0mm 0 W/m2
02:09 28.5 °F /  -1.9 °C 26 °F /  -3.3 °C 29.88in /  1011.7hPa Calm     90% 0.00in /  0mm 0 W/m2
02:14 28.6 °F /  -1.9 °C 26 °F /  -3.3 °C 29.88in /  1011.7hPa Calm     90% 0.00in /  0mm 0 W/m2
02:19 28.6 °F /  -1.9 °C 26.1 °F /  -3.3 °C 29.87in /  1011.4hPa Calm     90% 0.00in /  0mm 0 W/m2
02:24 28.7 °F /  -1.8 °C 26.1 °F /  -3.3 °C 29.87in /  1011.4hPa Calm     90% 0.00in /  0mm 0 W/m2
02:29 28.7 °F /  -1.8 °C 26.2 °F /  -3.2 °C 29.87in /  1011.4hPa Calm     90% 0.00in /  0mm 0 W/m2
02:34 28.8 °F /  -1.8 °C 26.2 °F /  -3.2 °C 29.87in /  1011.4hPa Calm     90% 0.00in /  0mm 0 W/m2
02:39 28.8 °F /  -1.8 °C 26.2 °F /  -3.2 °C 29.86in /  1011.1hPa Calm     90% 0.00in /  0mm 0 W/m2
02:44 28.8 °F /  -1.8 °C 26.3 °F /  -3.2 °C 29.86in /  1011.1hPa Calm     90% 0.00in /  0mm 0 W/m2
02:49 28.8 °F /  -1.8 °C 26.2 °F /  -3.2 °C 29.84in /  1010.4hPa Calm     90% 0.00in /  0mm 0 W/m2
02:54 28.8 °F /  -1.8 °C 26.2 °F /  -3.2 °C 29.84in /  1010.4hPa Calm     90% 0.00in /  0mm 0 W/m2
02:59 28.8 °F /  -1.8 °C 26.2 °F /  -3.2 °C 29.83in /  1010hPa Calm     90% 0.00in /  0mm 0 W/m2
03:04 28.7 °F /  -1.8 °C 26.2 °F /  -3.2 °C 29.83in /  1010hPa Calm     90% 0.00in /  0mm 0 W/m2
03:09 28.7 °F /  -1.8 °C 26.1 °F /  -3.3 °C 29.83in /  1010hPa Calm     90% 0.00in /  0mm 0 W/m2
03:14 28.7 °F /  -1.8 °C 26.1 °F /  -3.3 °C 29.83in /  1010hPa Calm     90% 0.00in /  0mm 0 W/m2
03:19 28.8 °F /  -1.8 °C 26.2 °F /  -3.2 °C 29.83in /  1010hPa Calm     90% 0.00in /  0mm 0 W/m2
03:24 28.8 °F /  -1.8 °C 26.2 °F /  -3.2 °C 29.83in /  1010hPa Calm     90% 0.00in /  0mm 0 W/m2
03:29 28.8 °F /  -1.8 °C 26.2 °F /  -3.2 °C 29.82in /  1009.7hPa Calm     90% 0.00in /  0mm 0 W/m2
03:34 28.8 °F /  -1.8 °C 26.2 °F /  -3.2 °C 29.82in /  1009.7hPa Calm     90% 0.00in /  0mm 0 W/m2
03:39 28.8 °F /  -1.8 °C 26.2 °F /  -3.2 °C 29.81in /  1009.4hPa Calm     90% 0.00in /  0mm 0 W/m2
03:44 28.8 °F /  -1.8 °C 26.2 °F /  -3.2 °C 29.81in /  1009.4hPa Calm     90% 0.00in /  0mm 0 W/m2
03:49 28.8 °F /  -1.8 °C 26.2 °F /  -3.2 °C 29.80in /  1009hPa Calm     90% 0.00in /  0mm 0 W/m2
03:54 28.8 °F /  -1.8 °C 26.2 °F /  -3.2 °C 29.80in /  1009hPa Calm     90% 0.00in /  0mm 0 W/m2
03:59 28.7 °F /  -1.8 °C 26.2 °F /  -3.2 °C 29.79in /  1008.7hPa Calm     90% 0.00in /  0mm 0 W/m2
04:00 28.7 °F /  -1.8 °C 26.1 °F /  -3.3 °C 29.79in /  1008.7hPa Calm     90% 0.00in /  0mm 0 W/m2
04:09 28.7 °F /  -1.8 °C 26.1 °F /  -3.3 °C 29.78in /  1008.4hPa Calm     90% 0.00in /  0mm 0 W/m2
04:14 28.7 °F /  -1.8 °C 26.1 °F /  -3.3 °C 29.78in /  1008.4hPa Calm     90% 0.00in /  0mm 0 W/m2
04:19 28.7 °F /  -1.8 °C 26.2 °F /  -3.2 °C 29.78in /  1008.4hPa Calm     90% 0.00in /  0mm 0 W/m2
04:24 28.8 °F /  -1.8 °C 26.2 °F /  -3.2 °C 29.78in /  1008.4hPa Calm     90% 0.00in /  0mm 0 W/m2
04:29 28.7 °F /  -1.8 °C 26.1 °F /  -3.3 °C 29.77in /  1008hPa Calm     90% 0.00in /  0mm 0 W/m2
04:34 28.7 °F /  -1.8 °C 26.2 °F /  -3.2 °C 29.78in /  1008.4hPa Calm     90% 0.00in /  0mm 0 W/m2
04:39 28.8 °F /  -1.8 °C 26.2 °F /  -3.2 °C 29.77in /  1008hPa Calm     90% 0.00in /  0mm 0 W/m2
04:44 28.9 °F /  -1.7 °C 26.6 °F /  -3 °C 29.77in /  1008hPa Calm     90.9% 0.00in /  0mm 0 W/m2
04:49 29 °F /  -1.7 °C 26.7 °F /  -2.9 °C 29.77in /  1008hPa Calm     91% 0.00in /  0mm 0 W/m2
04:54 29 °F /  -1.7 °C 26.7 °F /  -2.9 °C 29.77in /  1008hPa Calm     91% 0.00in /  0mm 0 W/m2
04:59 29 °F /  -1.7 °C 26.7 °F /  -2.9 °C 29.77in /  1008hPa Calm     91% 0.00in /  0mm 0 W/m2
05:04 29.1 °F /  -1.6 °C 26.8 °F /  -2.9 °C 29.76in /  1007.7hPa NE 1.6mph /  2.6km/h 4mph /  6.4km/h 91% 0.00in /  0mm 0 W/m2
05:09 29.1 °F /  -1.6 °C 26.6 °F /  -3 °C 29.76in /  1007.7hPa NE 0.1mph /  0.2km/h 4mph /  6.4km/h 90.2% 0.00in /  0mm 0 W/m2
05:14 29.1 °F /  -1.6 °C 26.5 °F /  -3.1 °C 29.76in /  1007.7hPa NE 0.5mph /  0.8km/h 4mph /  6.4km/h 90% 0.00in /  0mm 0 W/m2
05:19 29.1 °F /  -1.6 °C 26.5 °F /  -3.1 °C 29.76in /  1007.7hPa Calm   4mph /  6.4km/h 90% 0.00in /  0mm 0 W/m2
05:24 29.1 °F /  -1.6 °C 26.5 °F /  -3.1 °C 29.76in /  1007.7hPa NE 0.1mph /  0.2km/h 4mph /  6.4km/h 90% 0.00in /  0mm 0 W/m2
05:29 29.1 °F /  -1.6 °C 26.5 °F /  -3.1 °C 29.75in /  1007.3hPa Calm   4mph /  6.4km/h 90% 0.00in /  0mm 0 W/m2
05:34 29.1 °F /  -1.6 °C 26.5 °F /  -3.1 °C 29.75in /  1007.3hPa Calm   4mph /  6.4km/h 90% 0.00in /  0mm 0 W/m2
05:39 29 °F /  -1.7 °C 26.4 °F /  -3.1 °C 29.74in /  1007hPa Calm   1mph /  1.6km/h 90% 0.00in /  0mm 0 W/m2
05:44 29 °F /  -1.7 °C 26.4 °F /  -3.1 °C 29.73in /  1006.7hPa Calm   1mph /  1.6km/h 90% 0.00in /  0mm 0 W/m2
05:49 29 °F /  -1.7 °C 26.7 °F /  -2.9 °C 29.72in /  1006.3hPa NE 0.6mph /  1km/h 2mph /  3.2km/h 90.8% 0.00in /  0mm 0 W/m2
05:54 29.1 °F /  -1.6 °C 26.8 °F /  -2.9 °C 29.72in /  1006.3hPa NE 1.7mph /  2.7km/h 3mph /  4.8km/h 91% 0.00in /  0mm 0 W/m2
05:59 29.1 °F /  -1.6 °C 26.8 °F /  -2.9 °C 29.71in /  1006hPa NE 1.1mph /  1.8km/h 3mph /  4.8km/h 91% 0.00in /  0mm 0 W/m2
06:04 29.1 °F /  -1.6 °C 26.8 °F /  -2.9 °C 29.71in /  1006hPa NE 0.9mph /  1.4km/h 3mph /  4.8km/h 91% 0.00in /  0mm 0 W/m2
06:09 29.1 °F /  -1.6 °C 26.8 °F /  -2.9 °C 29.70in /  1005.6hPa Calm   3mph /  4.8km/h 91% 0.00in /  0mm 0 W/m2
06:14 29.1 °F /  -1.6 °C 26.8 °F /  -2.9 °C 29.70in /  1005.6hPa Calm   3mph /  4.8km/h 91% 0.00in /  0mm 0 W/m2
06:19 29.1 °F /  -1.6 °C 26.8 °F /  -2.9 °C 29.70in /  1005.6hPa Calm   3mph /  4.8km/h 91% 0.00in /  0mm 0 W/m2
06:24 29.1 °F /  -1.6 °C 26.8 °F /  -2.9 °C 29.71in /  1006hPa Calm   3mph /  4.8km/h 91% 0.00in /  0mm 0 W/m2
06:29 29.1 °F /  -1.6 °C 26.8 °F /  -2.9 °C 29.71in /  1006hPa NE 0.3mph /  0.5km/h 3mph /  4.8km/h 91% 0.00in /  0mm 0 W/m2
06:34 29.2 °F /  -1.6 °C 26.9 °F /  -2.8 °C 29.71in /  1006hPa NE 0.3mph /  0.5km/h 3mph /  4.8km/h 91% 0.00in /  0mm 0 W/m2
06:39 29.2 °F /  -1.6 °C 26.9 °F /  -2.8 °C 29.70in /  1005.6hPa Calm   2mph /  3.2km/h 91% 0.00in /  0mm 0 W/m2
06:44 29.3 °F /  -1.5 °C 27.1 °F /  -2.7 °C 29.70in /  1005.6hPa Calm   2mph /  3.2km/h 91.4% 0.00in /  0mm 0 W/m2
06:49 29.5 °F /  -1.4 °C 27.5 °F /  -2.5 °C 29.70in /  1005.6hPa Calm   2mph /  3.2km/h 92% 0.00in /  0mm 0 W/m2
06:54 29.6 °F /  -1.3 °C 27.6 °F /  -2.4 °C 29.70in /  1005.6hPa Calm   2mph /  3.2km/h 92% 0.00in /  0mm 0 W/m2
06:59 29.7 °F /  -1.3 °C 27.7 °F /  -2.4 °C 29.70in /  1005.6hPa NE 0.3mph /  0.5km/h 3mph /  4.8km/h 92% 0.00in /  0mm 0 W/m2
07:04 29.8 °F /  -1.2 °C 27.8 °F /  -2.3 °C 29.70in /  1005.6hPa NE 0.2mph /  0.3km/h 3mph /  4.8km/h 92% 0.00in /  0mm 0 W/m2
07:09 29.9 °F /  -1.2 °C 27.9 °F /  -2.3 °C 29.70in /  1005.6hPa Calm   3mph /  4.8km/h 92% 0.00in /  0mm 0 W/m2
07:14 30 °F /  -1.1 °C 28.1 °F /  -2.2 °C 29.69in /  1005.3hPa NE 0.5mph /  0.8km/h 3mph /  4.8km/h 92.4% 0.00in /  0mm 0 W/m2
07:19 30.1 °F /  -1.1 °C 28.2 °F /  -2.1 °C 29.70in /  1005.6hPa NE 1.1mph /  1.8km/h 3mph /  4.8km/h 92.5% 0.00in /  0mm 0 W/m2
07:24 30 °F /  -1.1 °C 28 °F /  -2.2 °C 29.69in /  1005.3hPa NE 0.3mph /  0.5km/h 3mph /  4.8km/h 92.1% 0.01in /  0.25mm 0 W/m2
07:29 30.1 °F /  -1.1 °C 28.3 °F /  -2.1 °C 29.69in /  1005.3hPa NE 0.2mph /  0.3km/h 3mph /  4.8km/h 92.8% 0.02in /  0.51mm 0 W/m2
07:34 30.2 °F /  -1 °C 28.4 °F /  -2 °C 29.69in /  1005.3hPa NE 0.2mph /  0.3km/h 3mph /  4.8km/h 93% 0.03in /  0.76mm 0 W/m2
07:39 30.3 °F /  -0.9 °C 28.5 °F /  -1.9 °C 29.69in /  1005.3hPa Calm   2mph /  3.2km/h 93% 0.04in /  1.02mm 0 W/m2
07:44 30.3 °F /  -0.9 °C 28.5 °F /  -1.9 °C 29.68in /  1005hPa Calm   2mph /  3.2km/h 93% 0.05in /  1.27mm 0 W/m2
07:49 30.4 °F /  -0.9 °C 28.7 °F /  -1.8 °C 29.68in /  1005hPa Calm   2mph /  3.2km/h 93% 0.05in /  1.27mm 0 W/m2
07:54 30.5 °F /  -0.8 °C 28.7 °F /  -1.8 °C 29.68in /  1005hPa Calm   2mph /  3.2km/h 93% 0.05in /  1.27mm 0 W/m2
07:59 30.5 °F /  -0.8 °C 28.7 °F /  -1.8 °C 29.67in /  1004.6hPa Calm   2mph /  3.2km/h 93% 0.05in /  1.27mm 5 W/m2
08:00 30.5 °F /  -0.8 °C 28.7 °F /  -1.8 °C 29.67in /  1004.6hPa Calm   2mph /  3.2km/h 93% 0.05in /  1.27mm 5 W/m2
08:09 30.6 °F /  -0.8 °C 28.8 °F /  -1.8 °C 29.67in /  1004.6hPa NE 0.1mph /  0.2km/h 2mph /  3.2km/h 93% 0.05in /  1.27mm 7 W/m2
08:14 30.7 °F /  -0.7 °C 28.9 °F /  -1.7 °C 29.66in /  1004.3hPa Calm   2mph /  3.2km/h 93% 0.05in /  1.27mm 9 W/m2
08:19 30.7 °F /  -0.7 °C 28.9 °F /  -1.7 °C 29.66in /  1004.3hPa Calm   2mph /  3.2km/h 93% 0.05in /  1.27mm 11 W/m2
08:24 30.8 °F /  -0.7 °C 29 °F /  -1.7 °C 29.65in /  1003.9hPa Calm   2mph /  3.2km/h 93% 0.05in /  1.27mm 11 W/m2
08:29 31 °F /  -0.6 °C 29.2 °F /  -1.6 °C 29.65in /  1003.9hPa Calm   2mph /  3.2km/h 93% 0.05in /  1.27mm 11 W/m2
08:34 31.1 °F /  -0.5 °C 29.3 °F /  -1.5 °C 29.65in /  1003.9hPa Calm   2mph /  3.2km/h 93% 0.05in /  1.27mm 14 W/m2
08:39 31.1 °F /  -0.5 °C 29.3 °F /  -1.5 °C 29.65in /  1003.9hPa NE 0.3mph /  0.5km/h 3mph /  4.8km/h 93% 0.03in /  0.76mm 19 W/m2
08:44 31.1 °F /  -0.5 °C 29.3 °F /  -1.5 °C 29.65in /  1003.9hPa Calm   3mph /  4.8km/h 93% 0.03in /  0.76mm 19 W/m2
08:49 31.1 °F /  -0.5 °C 29.3 °F /  -1.5 °C 29.64in /  1003.6hPa NE 0.1mph /  0.2km/h 3mph /  4.8km/h 93% 0.03in /  0.76mm 18 W/m2
08:54 31.1 °F /  -0.5 °C 29.3 °F /  -1.5 °C 29.64in /  1003.6hPa Calm   3mph /  4.8km/h 93% 0.03in /  0.76mm 19 W/m2
08:59 31.2 °F /  -0.4 °C 29.5 °F /  -1.4 °C 29.64in /  1003.6hPa Calm   3mph /  4.8km/h 93.5% 0.03in /  0.76mm 18 W/m2
09:04 31.3 °F /  -0.4 °C 29.8 °F /  -1.2 °C 29.63in /  1003.3hPa Calm   3mph /  4.8km/h 94% 0.03in /  0.76mm 25 W/m2
09:09 31.4 °F /  -0.3 °C 29.9 °F /  -1.2 °C 29.63in /  1003.3hPa Calm     94% 0.00in /  0mm 21 W/m2
09:14 31.4 °F /  -0.3 °C 29.9 °F /  -1.2 °C 29.62in /  1002.9hPa Calm     94% 0.00in /  0mm 25 W/m2
09:19 31.4 °F /  -0.3 °C 29.9 °F /  -1.2 °C 29.62in /  1002.9hPa Calm     94% 0.00in /  0mm 33 W/m2
09:24 31.5 °F /  -0.3 °C 30 °F /  -1.1 °C 29.62in /  1002.9hPa Calm     94% 0.00in /  0mm 37 W/m2
09:29 31.6 °F /  -0.2 °C 30.1 °F /  -1.1 °C 29.62in /  1002.9hPa Calm     94% 0.00in /  0mm 40 W/m2
09:34 31.7 °F /  -0.2 °C 30.1 °F /  -1.1 °C 29.61in /  1002.6hPa Calm     94% 0.00in /  0mm 47 W/m2
09:39 31.8 °F /  -0.1 °C 30.3 °F /  -0.9 °C 29.61in /  1002.6hPa Calm     94% 0.00in /  0mm 44 W/m2
09:44 31.9 °F /  -0.1 °C 30.4 °F /  -0.9 °C 29.61in /  1002.6hPa Calm     94% 0.00in /  0mm 44 W/m2
09:49 31.9 °F /  -0.1 °C 30.4 °F /  -0.9 °C 29.60in /  1002.3hPa Calm     94% 0.00in /  0mm 39 W/m2
09:54 32 °F /  0 °C 30.8 °F /  -0.7 °C 29.60in /  1002.3hPa Calm     95.3% 0.00in /  0mm 56 W/m2
09:59 32.1 °F /  0.1 °C 30.8 °F /  -0.7 °C 29.60in /  1002.3hPa Calm     94.8% 0.00in /  0mm 54 W/m2
10:04 32.2 °F /  0.1 °C 30.7 °F /  -0.7 °C 29.60in /  1002.3hPa Calm     94% 0.00in /  0mm 33 W/m2
10:09 32.3 °F /  0.2 °C 30.8 °F /  -0.7 °C 29.60in /  1002.3hPa Calm     94% 0.00in /  0mm 32 W/m2
10:14 32.3 °F /  0.2 °C 30.8 °F /  -0.7 °C 29.60in /  1002.3hPa Calm     94% 0.00in /  0mm 23 W/m2
10:19 32.4 °F /  0.2 °C 30.8 °F /  -0.7 °C 29.59in /  1001.9hPa Calm     94% 0.00in /  0mm 19 W/m2
10:24 32.5 °F /  0.3 °C 31 °F /  -0.6 °C 29.59in /  1001.9hPa Calm     94% 0.00in /  0mm 19 W/m2
10:29 32.7 °F /  0.4 °C 31.2 °F /  -0.4 °C 29.59in /  1001.9hPa Calm     94% 0.00in /  0mm 25 W/m2
10:34 32.8 °F /  0.4 °C 31.3 °F /  -0.4 °C 29.58in /  1001.6hPa Calm     94% 0.00in /  0mm 28 W/m2
10:39 32.8 °F /  0.4 °C 31.3 °F /  -0.4 °C 29.57in /  1001.2hPa Calm     94% 0.00in /  0mm 30 W/m2
10:44 32.8 °F /  0.4 °C 31.3 °F /  -0.4 °C 29.57in /  1001.2hPa Calm     94% 0.00in /  0mm 26 W/m2
10:49 32.7 °F /  0.4 °C 31.2 °F /  -0.4 °C 29.56in /  1000.9hPa Calm     94% 0.00in /  0mm 37 W/m2
10:54 32.7 °F /  0.4 °C 31.2 °F /  -0.4 °C 29.56in /  1000.9hPa Calm     94% 0.00in /  0mm 40 W/m2
10:59 32.8 °F /  0.4 °C 31.3 °F /  -0.4 °C 29.55in /  1000.6hPa Calm     94% 0.00in /  0mm 40 W/m2
11:04 32.8 °F /  0.4 °C 31.3 °F /  -0.4 °C 29.55in /  1000.6hPa Calm     94% 0.00in /  0mm 30 W/m2
11:09 32.8 °F /  0.4 °C 31.3 °F /  -0.4 °C 29.55in /  1000.6hPa Calm     94% 0.00in /  0mm 26 W/m2
11:14 32.9 °F /  0.5 °C 31.4 °F /  -0.3 °C 29.55in /  1000.6hPa Calm     94% 0.00in /  0mm 23 W/m2
11:19 33 °F /  0.6 °C 31.5 °F /  -0.3 °C 29.54in /  1000.2hPa Calm     94% 0.00in /  0mm 23 W/m2
11:24 33 °F /  0.6 °C 31.5 °F /  -0.3 °C 29.54in /  1000.2hPa Calm     94% 0.00in /  0mm 32 W/m2
11:29 33.1 °F /  0.6 °C 31.5 °F /  -0.3 °C 29.54in /  1000.2hPa NE 0.1mph /  0.2km/h 1mph /  1.6km/h 94% 0.00in /  0mm 35 W/m2
11:34 33.1 °F /  0.6 °C 31.6 °F /  -0.2 °C 29.53in /  999.9hPa Calm   1mph /  1.6km/h 94% 0.00in /  0mm 23 W/m2
11:39 33.2 °F /  0.7 °C 31.7 °F /  -0.2 °C 29.53in /  999.9hPa Calm     94% 0.00in /  0mm 23 W/m2
11:44 33.2 °F /  0.7 °C 31.7 °F /  -0.2 °C 29.53in /  999.9hPa Calm     94% 0.00in /  0mm 19 W/m2
11:49 33.2 °F /  0.7 °C 31.7 °F /  -0.2 °C 29.53in /  999.9hPa Calm     94% 0.00in /  0mm 21 W/m2
11:54 33.2 °F /  0.7 °C 31.7 °F /  -0.2 °C 29.52in /  999.5hPa Calm     94% 0.00in /  0mm 26 W/m2
11:59 33.3 °F /  0.7 °C 31.7 °F /  -0.2 °C 29.53in /  999.9hPa Calm     94% 0.00in /  0mm 26 W/m2
12:00 33.3 °F /  0.7 °C 31.8 °F /  -0.1 °C 29.53in /  999.9hPa Calm     94% 0.00in /  0mm 19 W/m2
12:09 33.4 °F /  0.8 °C 31.9 °F /  -0.1 °C 29.53in /  999.9hPa Calm     94% 0.00in /  0mm 19 W/m2
12:14 33.4 °F /  0.8 °C 31.9 °F /  -0.1 °C 29.53in /  999.9hPa Calm     94% 0.00in /  0mm 18 W/m2
12:19 33.5 °F /  0.8 °C 31.9 °F /  -0.1 °C 29.52in /  999.5hPa Calm     94% 0.00in /  0mm 26 W/m2
12:24 33.5 °F /  0.8 °C 32 °F /  0 °C 29.51in /  999.2hPa NE 0.4mph /  0.6km/h 3mph /  4.8km/h 94% 0.00in /  0mm 46 W/m2
12:29 33.5 °F /  0.8 °C 32 °F /  0 °C 29.51in /  999.2hPa NE 0.4mph /  0.6km/h 4mph /  6.4km/h 94% 0.00in /  0mm 65 W/m2
12:34 33.5 °F /  0.8 °C 32 °F /  0 °C 29.50in /  998.9hPa Calm   4mph /  6.4km/h 94% 0.00in /  0mm 65 W/m2
12:39 33.5 °F /  0.8 °C 32 °F /  0 °C 29.50in /  998.9hPa NE 0.3mph /  0.5km/h 2mph /  3.2km/h 94% 0.00in /  0mm 60 W/m2
12:44 33.5 °F /  0.8 °C 32 °F /  0 °C 29.50in /  998.9hPa NE 0.2mph /  0.3km/h 3mph /  4.8km/h 94% 0.00in /  0mm 62 W/m2
12:49 33.6 °F /  0.9 °C 32.1 °F /  0.1 °C 29.50in /  998.9hPa Calm   3mph /  4.8km/h 94% 0.00in /  0mm 49 W/m2
12:54 33.6 °F /  0.9 °C 32.1 °F /  0.1 °C 29.50in /  998.9hPa Calm   3mph /  4.8km/h 94% 0.00in /  0mm 47 W/m2
12:59 33.6 °F /  0.9 °C 32.1 °F /  0.1 °C 29.49in /  998.5hPa Calm   3mph /  4.8km/h 94% 0.00in /  0mm 58 W/m2
13:04 33.7 °F /  0.9 °C 32.2 °F /  0.1 °C 29.49in /  998.5hPa Calm   3mph /  4.8km/h 94% 0.00in /  0mm 58 W/m2
13:09 33.7 °F /  0.9 °C 32.2 °F /  0.1 °C 29.49in /  998.5hPa Calm     94% 0.00in /  0mm 51 W/m2
13:14 33.7 °F /  0.9 °C 32.2 °F /  0.1 °C 29.48in /  998.2hPa Calm     94% 0.00in /  0mm 56 W/m2
13:19 33.8 °F /  1 °C 32.3 °F /  0.2 °C 29.48in /  998.2hPa Calm     94% 0.00in /  0mm 44 W/m2
13:24 33.8 °F /  1 °C 32.3 °F /  0.2 °C 29.48in /  998.2hPa Calm     94% 0.00in /  0mm 40 W/m2
13:29 33.8 °F /  1 °C 32.3 °F /  0.2 °C 29.48in /  998.2hPa Calm     94% 0.00in /  0mm 47 W/m2
13:34 33.9 °F /  1.1 °C 32.3 °F /  0.2 °C 29.48in /  998.2hPa Calm     94% 0.00in /  0mm 63 W/m2
13:39 33.9 °F /  1.1 °C 32.4 °F /  0.2 °C 29.47in /  997.9hPa Calm     94% 0.00in /  0mm 54 W/m2
13:44 34 °F /  1.1 °C 32.5 °F /  0.3 °C 29.47in /  997.9hPa Calm     94% 0.00in /  0mm 81 W/m2
13:49 34.1 °F /  1.2 °C 32.5 °F /  0.3 °C 29.47in /  997.9hPa Calm     94% 0.00in /  0mm 81 W/m2
13:54 34.1 °F /  1.2 °C 32.5 °F /  0.3 °C 29.48in /  998.2hPa Calm     94% 0.00in /  0mm 37 W/m2
13:59 33.9 °F /  1.1 °C 32.4 °F /  0.2 °C 29.47in /  997.9hPa Calm     94% 0.00in /  0mm 46 W/m2
14:04 33.9 °F /  1.1 °C 32.4 °F /  0.2 °C 29.47in /  997.9hPa Calm     94% 0.00in /  0mm 42 W/m2
14:09 33.9 °F /  1.1 °C 32.4 °F /  0.2 °C 29.47in /  997.9hPa Calm     94% 0.00in /  0mm 47 W/m2
14:14 33.9 °F /  1.1 °C 32.4 °F /  0.2 °C 29.47in /  997.9hPa Calm     94% 0.00in /  0mm 67 W/m2
14:19 34 °F /  1.1 °C 32.5 °F /  0.3 °C 29.47in /  997.9hPa Calm     94% 0.00in /  0mm 83 W/m2
14:24 34.1 °F /  1.2 °C 32.5 °F /  0.3 °C 29.46in /  997.5hPa Calm     94% 0.00in /  0mm 83 W/m2
14:29 34.2 °F /  1.2 °C 32.9 °F /  0.5 °C 29.46in /  997.5hPa Calm     94.9% 0.00in /  0mm 69 W/m2
14:34 34.2 °F /  1.2 °C 32.9 °F /  0.5 °C 29.46in /  997.5hPa Calm     95% 0.00in /  0mm 63 W/m2
14:39 34.3 °F /  1.3 °C 33 °F /  0.6 °C 29.46in /  997.5hPa Calm     95% 0.00in /  0mm 53 W/m2
14:44 34.3 °F /  1.3 °C 33 °F /  0.6 °C 29.46in /  997.5hPa Calm     95% 0.00in /  0mm 39 W/m2
14:49 34.3 °F /  1.3 °C 33 °F /  0.6 °C 29.46in /  997.5hPa Calm     95% 0.00in /  0mm 42 W/m2
14:54 34.3 °F /  1.3 °C 33 °F /  0.6 °C 29.46in /  997.5hPa Calm     95% 0.00in /  0mm 40 W/m2
14:59 34.3 °F /  1.3 °C 33 °F /  0.6 °C 29.46in /  997.5hPa Calm     95% 0.00in /  0mm 39 W/m2
15:04 34.3 °F /  1.3 °C 33 °F /  0.6 °C 29.46in /  997.5hPa Calm     95% 0.00in /  0mm 39 W/m2
15:09 34.4 °F /  1.3 °C 33.1 °F /  0.6 °C 29.46in /  997.5hPa Calm     95% 0.00in /  0mm 37 W/m2
15:14 34.3 °F /  1.3 °C 33.1 °F /  0.6 °C 29.46in /  997.5hPa Calm     95% 0.00in /  0mm 28 W/m2
15:19 34.3 °F /  1.3 °C 33 °F /  0.6 °C 29.46in /  997.5hPa Calm     95% 0.00in /  0mm 40 W/m2
15:24 34.4 °F /  1.3 °C 33.1 °F /  0.6 °C 29.47in /  997.9hPa Calm     95% 0.00in /  0mm 40 W/m2
15:29 34.4 °F /  1.3 °C 33.1 °F /  0.6 °C 29.47in /  997.9hPa Calm     95% 0.00in /  0mm 28 W/m2
15:34 34.4 °F /  1.3 °C 33.2 °F /  0.7 °C 29.46in /  997.5hPa Calm     95% 0.00in /  0mm 30 W/m2
15:39 34.5 °F /  1.4 °C 33.2 °F /  0.7 °C 29.46in /  997.5hPa Calm     95% 0.00in /  0mm 32 W/m2
15:44 34.5 °F /  1.4 °C 33.2 °F /  0.7 °C 29.47in /  997.9hPa Calm     95% 0.00in /  0mm 30 W/m2
15:49 34.5 °F /  1.4 °C 32.9 °F /  0.5 °C 29.47in /  997.9hPa Calm     94.1% 0.00in /  0mm 25 W/m2
15:54 34.4 °F /  1.3 °C 32.9 °F /  0.5 °C 29.47in /  997.9hPa Calm     94% 0.00in /  0mm 16 W/m2
15:59 34.4 °F /  1.3 °C 32.9 °F /  0.5 °C 29.47in /  997.9hPa Calm     94% 0.00in /  0mm 9 W/m2
16:00 34.5 °F /  1.4 °C 32.9 °F /  0.5 °C 29.47in /  997.9hPa Calm     94% 0.00in /  0mm 0 W/m2
16:09 34.4 °F /  1.3 °C 32.9 °F /  0.5 °C 29.47in /  997.9hPa Calm     94.1% 0.00in /  0mm 5 W/m2
16:14 34.4 °F /  1.3 °C 33.1 °F /  0.6 °C 29.48in /  998.2hPa Calm     94.8% 0.00in /  0mm 0 W/m2
16:19 34.4 °F /  1.3 °C 33.1 °F /  0.6 °C 29.48in /  998.2hPa Calm     95% 0.00in /  0mm 0 W/m2
16:24 34.4 °F /  1.3 °C 33.1 °F /  0.6 °C 29.48in /  998.2hPa Calm     95% 0.00in /  0mm 0 W/m2
16:29 34.3 °F /  1.3 °C 33 °F /  0.6 °C 29.48in /  998.2hPa Calm     95% 0.00in /  0mm 0 W/m2
16:34 34.3 °F /  1.3 °C 33 °F /  0.6 °C 29.48in /  998.2hPa Calm     95% 0.00in /  0mm 0 W/m2
16:39 34.3 °F /  1.3 °C 33 °F /  0.6 °C 29.48in /  998.2hPa Calm     95% 0.00in /  0mm 0 W/m2
16:44 34.3 °F /  1.3 °C 33 °F /  0.6 °C 29.47in /  997.9hPa Calm     95% 0.00in /  0mm 0 W/m2
16:49 34.3 °F /  1.3 °C 33 °F /  0.6 °C 29.48in /  998.2hPa Calm     95% 0.00in /  0mm 0 W/m2
16:54 34.3 °F /  1.3 °C 33 °F /  0.6 °C 29.49in /  998.5hPa Calm     95% 0.00in /  0mm 0 W/m2
16:59 34.3 °F /  1.3 °C 33 °F /  0.6 °C 29.49in /  998.5hPa Calm     95% 0.00in /  0mm 0 W/m2
17:04 34.3 °F /  1.3 °C 33 °F /  0.6 °C 29.49in /  998.5hPa Calm     95% 0.00in /  0mm 0 W/m2
17:09 34.2 °F /  1.2 °C 32.9 °F /  0.5 °C 29.49in /  998.5hPa Calm     95% 0.00in /  0mm 0 W/m2
17:14 34.2 °F /  1.2 °C 32.9 °F /  0.5 °C 29.49in /  998.5hPa Calm     95% 0.00in /  0mm 0 W/m2
17:19 34.2 °F /  1.2 °C 32.9 °F /  0.5 °C 29.49in /  998.5hPa Calm     95% 0.00in /  0mm 0 W/m2
17:24 34.2 °F /  1.2 °C 32.9 °F /  0.5 °C 29.49in /  998.5hPa Calm     95% 0.00in /  0mm 0 W/m2
17:29 34.2 °F /  1.2 °C 32.9 °F /  0.5 °C 29.49in /  998.5hPa Calm     95% 0.00in /  0mm 0 W/m2
17:34 34.2 °F /  1.2 °C 32.9 °F /  0.5 °C 29.49in /  998.5hPa Calm     95% 0.00in /  0mm 0 W/m2
17:39 34.2 °F /  1.2 °C 33 °F /  0.6 °C 29.49in /  998.5hPa Calm     95% 0.00in /  0mm 0 W/m2
17:44 34.3 °F /  1.3 °C 33 °F /  0.6 °C 29.50in /  998.9hPa Calm     95% 0.00in /  0mm 0 W/m2
17:49 34.3 °F /  1.3 °C 33 °F /  0.6 °C 29.50in /  998.9hPa Calm     95% 0.00in /  0mm 0 W/m2
17:54 34.3 °F /  1.3 °C 33 °F /  0.6 °C 29.49in /  998.5hPa Calm     95% 0.00in /  0mm 0 W/m2
17:59 34.3 °F /  1.3 °C 33 °F /  0.6 °C 29.50in /  998.9hPa Calm     95% 0.00in /  0mm 0 W/m2
18:04 34.3 °F /  1.3 °C 33 °F /  0.6 °C 29.49in /  998.5hPa Calm     95% 0.00in /  0mm 0 W/m2
18:09 34.3 °F /  1.3 °C 33 °F /  0.6 °C 29.50in /  998.9hPa Calm     95% 0.00in /  0mm 0 W/m2
18:14 34.3 °F /  1.3 °C 33 °F /  0.6 °C 29.50in /  998.9hPa Calm     95% 0.00in /  0mm 0 W/m2
18:19 34.3 °F /  1.3 °C 33 °F /  0.6 °C 29.49in /  998.5hPa Calm     95% 0.00in /  0mm 0 W/m2
18:20 34.3 °F /  1.3 °C 33 °F /  0.6 °C 29.49in /  998.5hPa Calm     95% 0.00in /  0mm 0 W/m2
18:29 34.3 °F /  1.3 °C 33 °F /  0.6 °C 29.50in /  998.9hPa Calm     95% 0.00in /  0mm 0 W/m2
18:34 34.3 °F /  1.3 °C 33 °F /  0.6 °C 29.50in /  998.9hPa Calm     95% 0.00in /  0mm 0 W/m2
18:39 34.3 °F /  1.3 °C 33 °F /  0.6 °C 29.50in /  998.9hPa Calm     95% 0.00in /  0mm 0 W/m2
18:44 34.3 °F /  1.3 °C 33 °F /  0.6 °C 29.50in /  998.9hPa Calm     95% 0.00in /  0mm 0 W/m2
18:49 34.3 °F /  1.3 °C 33.1 °F /  0.6 °C 29.50in /  998.9hPa Calm     95% 0.00in /  0mm 0 W/m2
18:54 34.3 °F /  1.3 °C 33 °F /  0.6 °C 29.50in /  998.9hPa Calm     95% 0.00in /  0mm 0 W/m2
18:59 34.3 °F /  1.3 °C 33 °F /  0.6 °C 29.49in /  998.5hPa Calm     95% 0.00in /  0mm 0 W/m2
19:04 34.4 °F /  1.3 °C 33.1 °F /  0.6 °C 29.50in /  998.9hPa Calm     95% 0.00in /  0mm 0 W/m2
19:09 34.4 °F /  1.3 °C 33.1 °F /  0.6 °C 29.51in /  999.2hPa Calm     95% 0.00in /  0mm 0 W/m2
19:14 34.4 °F /  1.3 °C 33.1 °F /  0.6 °C 29.52in /  999.5hPa Calm     95% 0.00in /  0mm 0 W/m2
19:19 34.4 °F /  1.3 °C 33.1 °F /  0.6 °C 29.52in /  999.5hPa Calm     95% 0.00in /  0mm 0 W/m2
19:24 34.3 °F /  1.3 °C 33 °F /  0.6 °C 29.52in /  999.5hPa Calm     95% 0.00in /  0mm 0 W/m2
19:29 34.3 °F /  1.3 °C 33 °F /  0.6 °C 29.52in /  999.5hPa Calm     95% 0.00in /  0mm 0 W/m2
19:34 34.3 °F /  1.3 °C 33 °F /  0.6 °C 29.52in /  999.5hPa Calm     95% 0.00in /  0mm 0 W/m2
19:39 34.4 °F /  1.3 °C 33.1 °F /  0.6 °C 29.52in /  999.5hPa Calm     95% 0.00in /  0mm 0 W/m2
19:44 34.4 °F /  1.3 °C 33.1 °F /  0.6 °C 29.52in /  999.5hPa Calm     95% 0.00in /  0mm 0 W/m2
19:49 34.4 °F /  1.3 °C 33.1 °F /  0.6 °C 29.52in /  999.5hPa Calm     95% 0.00in /  0mm 0 W/m2
19:54 34.5 °F /  1.4 °C 33.2 °F /  0.7 °C 29.52in /  999.5hPa Calm     95% 0.00in /  0mm 0 W/m2
19:58 34.5 °F /  1.4 °C 33.2 °F /  0.7 °C 29.52in /  999.5hPa Calm     95% 0.00in /  0mm 0 W/m2
20:04 34.5 °F /  1.4 °C 33.2 °F /  0.7 °C 29.52in /  999.5hPa Calm     95% 0.00in /  0mm 0 W/m2
20:09 34.5 °F /  1.4 °C 33.2 °F /  0.7 °C 29.52in /  999.5hPa Calm     95% 0.00in /  0mm 0 W/m2
20:14 34.6 °F /  1.4 °C 33.3 °F /  0.7 °C 29.52in /  999.5hPa Calm     95% 0.00in /  0mm 0 W/m2
20:19 34.7 °F /  1.5 °C 33.4 °F /  0.8 °C 29.51in /  999.2hPa Calm     95% 0.00in /  0mm 0 W/m2
20:24 34.7 °F /  1.5 °C 33.5 °F /  0.8 °C 29.51in /  999.2hPa Calm     95% 0.00in /  0mm 0 W/m2
20:29 34.8 °F /  1.6 °C 33.5 °F /  0.8 °C 29.51in /  999.2hPa NE 0.2mph /  0.3km/h 3mph /  4.8km/h 95% 0.00in /  0mm 0 W/m2
20:34 34.8 °F /  1.6 °C 33.5 °F /  0.8 °C 29.51in /  999.2hPa NE 0.2mph /  0.3km/h 3mph /  4.8km/h 95% 0.00in /  0mm 0 W/m2
20:39 34.8 °F /  1.6 °C 33.5 °F /  0.8 °C 29.52in /  999.5hPa Calm   2mph /  3.2km/h 95% 0.00in /  0mm 0 W/m2
20:44 34.8 °F /  1.6 °C 33.5 °F /  0.8 °C 29.52in /  999.5hPa NE 0.4mph /  0.6km/h 2mph /  3.2km/h 95% 0.00in /  0mm 0 W/m2
20:49 34.8 °F /  1.6 °C 33.5 °F /  0.8 °C 29.51in /  999.2hPa NE 0.4mph /  0.6km/h 3mph /  4.8km/h 95% 0.00in /  0mm 0 W/m2
20:54 34.8 °F /  1.6 °C 33.5 °F /  0.8 °C 29.51in /  999.2hPa NE 0.4mph /  0.6km/h 4mph /  6.4km/h 95% 0.00in /  0mm 0 W/m2
20:59 34.8 °F /  1.6 °C 33.5 °F /  0.8 °C 29.51in /  999.2hPa NE 0.2mph /  0.3km/h 4mph /  6.4km/h 95% 0.00in /  0mm 0 W/m2
21:04 34.8 °F /  1.6 °C 33.5 °F /  0.8 °C 29.51in /  999.2hPa Calm   4mph /  6.4km/h 95% 0.00in /  0mm 0 W/m2
21:09 34.8 °F /  1.6 °C 33.5 °F /  0.8 °C 29.51in /  999.2hPa Calm     95% 0.00in /  0mm 0 W/m2
21:14 34.8 °F /  1.6 °C 33.6 °F /  0.9 °C 29.51in /  999.2hPa NE 0.2mph /  0.3km/h 3mph /  4.8km/h 95% 0.00in /  0mm 0 W/m2
21:19 34.8 °F /  1.6 °C 33.6 °F /  0.9 °C 29.52in /  999.5hPa Calm   3mph /  4.8km/h 95% 0.00in /  0mm 0 W/m2
21:24 34.9 °F /  1.6 °C 33.6 °F /  0.9 °C 29.53in /  999.9hPa NE 0.2mph /  0.3km/h 3mph /  4.8km/h 95% 0.00in /  0mm 0 W/m2
21:29 34.9 °F /  1.6 °C 33.6 °F /  0.9 °C 29.53in /  999.9hPa NE 0.3mph /  0.5km/h 3mph /  4.8km/h 95% 0.00in /  0mm 0 W/m2
21:34 34.9 °F /  1.6 °C 33.6 °F /  0.9 °C 29.52in /  999.5hPa Calm   3mph /  4.8km/h 95% 0.00in /  0mm 0 W/m2
21:39 34.9 °F /  1.6 °C 33.6 °F /  0.9 °C 29.52in /  999.5hPa Calm     95% 0.00in /  0mm 0 W/m2
21:44 35 °F /  1.7 °C 33.7 °F /  0.9 °C 29.52in /  999.5hPa Calm     95% 0.00in /  0mm 0 W/m2
21:49 35 °F /  1.7 °C 33.7 °F /  0.9 °C 29.52in /  999.5hPa NE 0.1mph /  0.2km/h 2mph /  3.2km/h 95% 0.00in /  0mm 0 W/m2
21:54 35 °F /  1.7 °C 33.7 °F /  0.9 °C 29.53in /  999.9hPa NE 0.2mph /  0.3km/h 3mph /  4.8km/h 95% 0.00in /  0mm 0 W/m2
21:59 35 °F /  1.7 °C 33.7 °F /  0.9 °C 29.53in /  999.9hPa Calm   3mph /  4.8km/h 95% 0.00in /  0mm 0 W/m2
22:03 35 °F /  1.7 °C 33.7 °F /  0.9 °C 29.53in /  999.9hPa Calm   3mph /  4.8km/h 95% 0.00in /  0mm 0 W/m2
Hartford County Weather
Compliments of Weather Underground - 2 mb